createdAt,value
2017-07-18T00:01:52.963Z,26.10
2017-07-18T00:04:21.056Z,27.13
2017-07-18T00:06:49.146Z,20.10
2017-07-18T00:09:17.241Z,15.83
2017-07-18T00:11:45.438Z,11.97
2017-07-18T00:14:13.529Z,10.77
2017-07-18T00:16:41.600Z,12.23
2017-07-18T00:19:09.679Z,12.43
2017-07-18T00:21:37.755Z,12.40
2017-07-18T00:24:05.845Z,10.97
2017-07-18T00:26:33.946Z,11.83
2017-07-18T00:29:02.038Z,13.53
2017-07-18T00:31:30.131Z,12.30
2017-07-18T00:33:58.236Z,11.83
2017-07-18T00:36:26.315Z,10.93
2017-07-18T00:38:54.403Z,11.70
2017-07-18T00:41:22.491Z,11.93
2017-07-18T00:43:50.575Z,13.10
2017-07-18T00:46:18.675Z,12.20
2017-07-18T00:48:46.768Z,11.27
2017-07-18T00:51:14.865Z,11.57
2017-07-18T00:53:42.958Z,10.33
2017-07-18T00:56:11.043Z,11.07
2017-07-18T00:58:39.129Z,12.63
2017-07-18T01:01:07.227Z,12.93
2017-07-18T01:03:35.315Z,13.83
2017-07-18T01:06:03.412Z,15.43
2017-07-18T01:08:31.497Z,14.77
2017-07-18T01:10:59.600Z,12.67
2017-07-18T01:13:27.767Z,11.47
2017-07-18T01:15:55.848Z,12.60
2017-07-18T01:18:23.946Z,14.03
2017-07-18T01:20:52.015Z,12.83
2017-07-18T01:23:20.126Z,11.50
2017-07-18T01:25:48.223Z,12.00
2017-07-18T01:28:16.319Z,13.00
2017-07-18T01:30:44.387Z,12.03
2017-07-18T01:33:12.483Z,12.23
2017-07-18T01:35:40.587Z,11.90
2017-07-18T01:38:08.671Z,12.33
2017-07-18T01:40:36.756Z,12.60
2017-07-18T01:43:04.836Z,12.73
2017-07-18T01:45:32.941Z,11.67
2017-07-18T01:48:01.027Z,11.77
2017-07-18T01:50:29.139Z,11.63
2017-07-18T01:52:57.222Z,12.73
2017-07-18T01:55:25.535Z,15.80
2017-07-18T01:57:53.618Z,13.20
2017-07-18T02:00:21.724Z,14.47
2017-07-18T02:02:49.811Z,15.20
2017-07-18T02:05:17.901Z,13.40
2017-07-18T02:07:46.001Z,13.00
2017-07-18T02:10:14.093Z,12.60
2017-07-18T02:12:42.183Z,11.73
2017-07-18T02:15:10.259Z,11.70
2017-07-18T02:17:38.356Z,12.43
2017-07-18T02:20:06.444Z,12.80
2017-07-18T02:22:34.538Z,12.70
2017-07-18T02:25:02.616Z,13.00
2017-07-18T02:27:30.706Z,13.63
2017-07-18T02:29:58.796Z,13.13
2017-07-18T02:32:26.880Z,17.73
2017-07-18T02:34:55.296Z,14.13
2017-07-18T02:37:23.375Z,13.70
2017-07-18T02:39:51.478Z,12.97
2017-07-18T02:42:19.557Z,12.87
2017-07-18T02:44:47.655Z,11.57
2017-07-18T02:47:15.953Z,14.90
2017-07-18T02:49:44.042Z,13.70
2017-07-18T02:52:12.124Z,12.20
2017-07-18T02:54:40.281Z,12.83
2017-07-18T02:57:08.372Z,13.20
2017-07-18T02:59:36.456Z,11.57
2017-07-18T03:02:04.547Z,12.30
2017-07-18T03:04:32.638Z,13.57
2017-07-18T03:07:00.739Z,11.90
2017-07-18T03:09:28.823Z,15.57
2017-07-18T03:11:56.919Z,14.93
2017-07-18T03:14:25.020Z,13.97
2017-07-18T03:16:53.108Z,15.50
2017-07-18T03:19:21.214Z,14.40
2017-07-18T03:21:49.484Z,13.83
2017-07-18T03:24:29.445Z,12.40
2017-07-18T03:26:57.544Z,11.93
2017-07-18T03:29:25.643Z,15.73
2017-07-18T03:31:53.719Z,14.10
2017-07-18T03:34:21.868Z,14.90
2017-07-18T03:36:49.959Z,14.73
2017-07-18T03:39:18.059Z,13.27
2017-07-18T03:41:46.139Z,13.40
2017-07-18T03:44:14.227Z,11.80
2017-07-18T03:46:42.476Z,12.00
2017-07-18T03:49:10.568Z,13.00
2017-07-18T03:51:38.659Z,13.33
2017-07-18T03:54:06.753Z,12.50
2017-07-18T03:56:34.835Z,13.90
2017-07-18T03:59:02.911Z,14.20
2017-07-18T04:01:30.999Z,14.00
2017-07-18T04:03:59.079Z,13.80
2017-07-18T04:06:27.163Z,15.50
2017-07-18T04:08:55.243Z,13.03
2017-07-18T04:11:23.321Z,12.10
2017-07-18T04:13:51.424Z,12.57
2017-07-18T04:16:19.500Z,13.43
2017-07-18T04:18:47.588Z,12.37
2017-07-18T04:21:15.679Z,12.10
2017-07-18T04:23:43.868Z,13.13
2017-07-18T04:26:11.989Z,13.17
2017-07-18T04:28:40.082Z,13.33
2017-07-18T04:31:08.157Z,14.50
2017-07-18T04:33:36.244Z,14.43
2017-07-18T04:36:04.317Z,12.60
2017-07-18T04:38:32.403Z,13.73
2017-07-18T04:41:00.483Z,11.73
2017-07-18T04:43:28.568Z,12.67
2017-07-18T04:45:56.649Z,14.80
2017-07-18T04:48:24.739Z,13.03
2017-07-18T04:50:52.821Z,13.27
2017-07-18T04:53:20.940Z,12.57
2017-07-18T04:55:49.032Z,12.80
2017-07-18T04:58:17.112Z,14.33
2017-07-18T05:00:45.201Z,13.97
2017-07-18T05:03:13.461Z,12.53
2017-07-18T05:05:41.555Z,15.97
2017-07-18T05:08:09.636Z,15.53
2017-07-18T05:10:37.722Z,14.83
2017-07-18T05:13:05.791Z,13.77
2017-07-18T05:15:33.948Z,18.60
2017-07-18T05:18:02.053Z,15.10
2017-07-18T05:20:30.134Z,12.40
2017-07-18T05:22:58.235Z,13.37
2017-07-18T05:25:26.295Z,12.83
2017-07-18T05:27:54.395Z,18.60
2017-07-18T05:30:22.476Z,13.60
2017-07-18T05:32:50.576Z,13.20
2017-07-18T05:35:18.661Z,14.23
2017-07-18T05:37:46.741Z,12.63
2017-07-18T05:40:14.826Z,14.03
2017-07-18T05:42:42.901Z,12.57
2017-07-18T05:45:11.059Z,10.90
2017-07-18T05:47:39.144Z,12.60
2017-07-18T05:50:07.227Z,14.93
2017-07-18T05:52:35.316Z,13.83
2017-07-18T05:55:03.410Z,13.97
2017-07-18T05:57:31.486Z,12.77
2017-07-18T05:59:59.578Z,12.50
2017-07-18T06:02:27.664Z,12.97
2017-07-18T06:04:56.251Z,12.30
2017-07-18T06:07:24.359Z,12.97
2017-07-18T06:09:52.623Z,11.10
2017-07-18T06:12:20.722Z,11.57
2017-07-18T06:14:48.802Z,10.40
2017-07-18T06:17:16.881Z,10.47
2017-07-18T06:19:44.954Z,11.37
2017-07-18T06:22:13.043Z,12.10
2017-07-18T06:24:41.155Z,12.20
2017-07-18T06:27:09.251Z,12.07
2017-07-18T06:29:37.735Z,10.73
2017-07-18T06:32:05.816Z,10.27
2017-07-18T06:34:33.903Z,10.63
2017-07-18T06:37:01.984Z,8.40
2017-07-18T06:39:30.067Z,9.67
2017-07-18T06:41:58.142Z,11.30
2017-07-18T06:44:26.235Z,9.00
2017-07-18T06:46:54.305Z,8.83
2017-07-18T06:49:22.378Z,10.53
2017-07-18T06:51:50.446Z,9.07
2017-07-18T06:54:18.525Z,9.13
2017-07-18T06:56:46.594Z,9.17
2017-07-18T06:59:14.677Z,8.87
2017-07-18T07:01:42.744Z,10.60
2017-07-18T07:04:10.812Z,8.90
2017-07-18T07:06:38.897Z,9.57
2017-07-18T07:09:06.972Z,8.03
2017-07-18T07:11:35.059Z,9.23
2017-07-18T07:14:03.138Z,10.40
2017-07-18T07:16:31.232Z,9.37
2017-07-18T07:18:59.306Z,9.53
2017-07-18T07:21:27.397Z,9.13
2017-07-18T07:23:55.475Z,8.10
2017-07-18T07:26:23.556Z,8.03
2017-07-18T07:28:51.625Z,8.53
2017-07-18T07:31:19.694Z,10.20
2017-07-18T07:33:47.777Z,8.53
2017-07-18T07:36:16.094Z,8.13
2017-07-18T07:38:44.167Z,7.90
2017-07-18T07:41:12.241Z,8.83
2017-07-18T07:43:40.322Z,11.00
2017-07-18T07:46:08.395Z,10.77
2017-07-18T07:48:36.479Z,10.70
2017-07-18T07:51:04.570Z,7.83
2017-07-18T07:53:33.475Z,8.27
2017-07-18T07:56:01.555Z,8.27
2017-07-18T07:58:29.636Z,8.33
2017-07-18T08:00:57.712Z,8.60
2017-07-18T08:03:25.788Z,7.60
2017-07-18T08:05:54.073Z,7.93
2017-07-18T08:08:22.156Z,9.13
2017-07-18T08:10:50.227Z,7.53
2017-07-18T08:13:18.297Z,10.33
2017-07-18T08:15:46.383Z,7.57
2017-07-18T08:18:14.456Z,8.80
2017-07-18T08:20:42.547Z,8.27
2017-07-18T08:23:10.638Z,7.23
2017-07-18T08:25:38.728Z,7.43
2017-07-18T08:28:06.795Z,7.20
2017-07-18T08:30:34.899Z,7.53
2017-07-18T08:33:02.975Z,7.80
2017-07-18T08:35:31.068Z,6.77
2017-07-18T08:37:59.147Z,7.60
2017-07-18T08:40:27.232Z,7.13
2017-07-18T08:42:55.324Z,7.60
2017-07-18T08:45:24.173Z,6.80
2017-07-18T08:47:52.256Z,6.93
2017-07-18T08:50:20.340Z,7.50
2017-07-18T08:52:48.431Z,8.73
2017-07-18T08:55:16.495Z,7.07
2017-07-18T08:57:44.571Z,6.67
2017-07-18T09:00:12.642Z,6.23
2017-07-18T09:02:40.723Z,5.30
2017-07-18T09:05:08.795Z,6.60
2017-07-18T09:07:36.879Z,5.80
2017-07-18T09:10:04.944Z,5.57
2017-07-18T09:12:33.026Z,6.73
2017-07-18T09:15:01.108Z,6.30
2017-07-18T09:17:29.176Z,9.17
2017-07-18T09:19:57.263Z,6.90
2017-07-18T09:22:25.327Z,7.47
2017-07-18T09:24:53.410Z,4.70
2017-07-18T09:27:21.479Z,7.27
2017-07-18T09:29:49.580Z,5.70
2017-07-18T09:32:17.650Z,6.13
2017-07-18T09:34:45.728Z,5.93
2017-07-18T09:37:13.803Z,7.93
2017-07-18T09:39:41.882Z,5.50
2017-07-18T09:42:09.959Z,5.27
2017-07-18T09:44:38.035Z,19.90
2017-07-18T09:47:06.144Z,5.37
2017-07-18T09:49:34.230Z,5.57
2017-07-18T09:52:02.294Z,6.73
2017-07-18T09:54:30.371Z,5.93
2017-07-18T09:56:58.456Z,5.47
2017-07-18T09:59:26.537Z,6.73
2017-07-18T10:01:54.607Z,6.37
2017-07-18T10:04:22.695Z,6.57
2017-07-18T10:06:50.772Z,6.67
2017-07-18T10:09:18.854Z,6.03
2017-07-18T10:11:46.930Z,5.33
2017-07-18T10:14:15.011Z,5.30
2017-07-18T10:16:43.097Z,6.10
2017-07-18T10:19:11.183Z,5.03
2017-07-18T10:21:39.260Z,6.10
2017-07-18T10:24:07.333Z,4.83
2017-07-18T10:26:35.411Z,6.77
2017-07-18T10:29:03.482Z,5.07
2017-07-18T10:31:31.556Z,5.67
2017-07-18T10:33:59.646Z,6.17
2017-07-18T10:36:27.722Z,5.83
2017-07-18T10:38:55.800Z,5.10
2017-07-18T10:41:23.879Z,5.13
2017-07-18T10:43:51.951Z,5.27
2017-07-18T10:46:20.035Z,5.30
2017-07-18T10:48:48.103Z,7.73
2017-07-18T10:51:16.192Z,9.17
2017-07-18T10:53:44.265Z,6.30
2017-07-18T10:56:12.358Z,6.67
2017-07-18T10:58:40.435Z,6.23
2017-07-18T11:01:08.510Z,6.83
2017-07-18T11:03:36.591Z,7.13
2017-07-18T11:06:04.670Z,6.40
2017-07-18T11:08:32.756Z,6.20
2017-07-18T11:11:00.826Z,5.57
2017-07-18T11:13:28.922Z,6.50
2017-07-18T11:15:57.017Z,5.30
2017-07-18T11:18:25.100Z,6.20
2017-07-18T11:20:53.194Z,4.90
2017-07-18T11:23:21.285Z,9.50
2017-07-18T11:25:49.360Z,5.50
2017-07-18T11:28:17.435Z,6.80
2017-07-18T11:30:45.523Z,5.83
2017-07-18T11:33:13.612Z,6.37
2017-07-18T11:35:41.713Z,5.27
2017-07-18T11:38:09.789Z,5.33
2017-07-18T11:40:38.208Z,6.40
2017-07-18T11:43:06.286Z,5.90
2017-07-18T11:45:34.363Z,7.10
2017-07-18T11:48:02.446Z,5.90
2017-07-18T11:50:30.534Z,7.40
2017-07-18T11:52:58.614Z,5.90
2017-07-18T11:55:26.708Z,6.30
2017-07-18T11:57:54.792Z,5.13
2017-07-18T12:00:22.872Z,5.60
2017-07-18T12:02:50.950Z,4.80
2017-07-18T12:05:19.023Z,5.07
2017-07-18T12:07:47.113Z,5.20
2017-07-18T12:10:15.189Z,5.17
2017-07-18T12:12:43.269Z,4.23
2017-07-18T12:15:11.338Z,5.37
2017-07-18T12:17:39.446Z,4.83
2017-07-18T12:20:07.519Z,5.40
2017-07-18T12:22:35.595Z,5.30
2017-07-18T12:25:03.666Z,6.40
2017-07-18T12:27:31.759Z,6.00
2017-07-18T12:29:59.827Z,5.30
2017-07-18T12:32:27.908Z,5.50
2017-07-18T12:34:55.995Z,5.50
2017-07-18T12:37:24.086Z,8.10
2017-07-18T12:39:52.165Z,7.03
2017-07-18T12:42:20.250Z,5.37
2017-07-18T12:44:48.332Z,5.37
2017-07-18T12:47:16.407Z,6.20
2017-07-18T12:49:44.499Z,5.70
2017-07-18T12:52:12.575Z,5.27
2017-07-18T12:54:40.663Z,6.30
2017-07-18T12:57:08.747Z,6.60
2017-07-18T12:59:36.835Z,6.23
2017-07-18T13:02:04.911Z,5.90
2017-07-18T13:04:32.978Z,5.40
2017-07-18T13:07:01.063Z,5.83
2017-07-18T13:09:29.136Z,7.13
2017-07-18T13:11:57.211Z,7.90
2017-07-18T13:14:25.291Z,5.33
2017-07-18T13:16:53.390Z,7.47
2017-07-18T13:19:21.481Z,5.50
2017-07-18T13:21:49.556Z,6.40
2017-07-18T13:24:17.627Z,5.57
2017-07-18T13:26:45.718Z,5.67
2017-07-18T13:29:13.788Z,5.83
2017-07-18T13:31:41.856Z,7.80
2017-07-18T13:34:09.931Z,5.17
2017-07-18T13:36:38.005Z,6.00
2017-07-18T13:39:06.083Z,5.60
2017-07-18T13:41:34.151Z,5.60
2017-07-18T13:44:02.238Z,6.73
2017-07-18T13:46:30.318Z,5.03
2017-07-18T13:48:58.411Z,6.90
2017-07-18T13:51:26.488Z,5.47
2017-07-18T13:53:54.565Z,5.63
2017-07-18T13:56:22.651Z,7.63
2017-07-18T13:58:50.719Z,5.10
2017-07-18T14:01:18.799Z,5.57
2017-07-18T14:03:46.862Z,6.20
2017-07-18T14:06:14.955Z,5.43
2017-07-18T14:08:43.047Z,5.60
2017-07-18T14:11:11.134Z,8.30
2017-07-18T14:13:39.204Z,6.20
2017-07-18T14:16:07.282Z,5.50
2017-07-18T14:18:35.362Z,5.00
2017-07-18T14:21:03.434Z,5.57
2017-07-18T14:23:31.508Z,5.07
2017-07-18T14:25:59.605Z,5.30
2017-07-18T14:28:27.680Z,4.50
2017-07-18T14:30:55.751Z,5.03
2017-07-18T14:33:23.823Z,5.20
2017-07-18T14:35:51.898Z,5.10
2017-07-18T14:38:19.970Z,5.47
2017-07-18T14:40:48.035Z,6.77
2017-07-18T14:43:16.114Z,5.20
2017-07-18T14:45:44.408Z,5.30
2017-07-18T14:48:12.471Z,5.80
2017-07-18T14:50:40.548Z,5.27
2017-07-18T14:53:08.636Z,5.60
2017-07-18T14:55:36.733Z,5.40
2017-07-18T14:58:04.817Z,5.50
2017-07-18T15:00:32.904Z,5.20
2017-07-18T15:03:00.975Z,6.53
2017-07-18T15:05:29.063Z,5.63
2017-07-18T15:07:57.141Z,5.40
2017-07-18T15:10:25.231Z,5.20
2017-07-18T15:12:53.314Z,5.10
2017-07-18T15:15:21.392Z,5.40
2017-07-18T15:17:49.479Z,5.10
2017-07-18T15:20:17.564Z,5.83
2017-07-18T15:22:45.635Z,4.50
2017-07-18T15:25:13.723Z,5.83
2017-07-18T15:27:41.819Z,4.83
2017-07-18T15:30:09.901Z,7.80
2017-07-18T15:32:37.993Z,4.60
2017-07-18T15:35:06.080Z,5.93
2017-07-18T15:37:34.159Z,5.10
2017-07-18T15:40:02.235Z,6.03
2017-07-18T15:42:30.319Z,4.70
2017-07-18T15:44:58.391Z,5.83
2017-07-18T15:47:26.479Z,5.00
2017-07-18T15:49:54.574Z,6.13
2017-07-18T15:52:22.643Z,7.40
2017-07-18T15:54:50.724Z,5.30
2017-07-18T15:57:18.795Z,4.47
2017-07-18T15:59:46.889Z,6.43
2017-07-18T16:02:14.966Z,7.10
2017-07-18T16:04:43.072Z,4.90
2017-07-18T16:07:11.357Z,5.80
2017-07-18T16:09:39.450Z,5.67
2017-07-18T16:12:07.756Z,66.60
2017-07-18T16:14:35.835Z,14.40
2017-07-18T16:17:03.922Z,6.67
2017-07-18T16:19:31.996Z,5.50
2017-07-18T16:22:00.072Z,5.30
2017-07-18T16:24:28.143Z,6.97
2017-07-18T16:26:56.228Z,5.07
2017-07-18T16:29:24.311Z,4.73
2017-07-18T16:31:52.400Z,4.90
2017-07-18T16:34:20.526Z,4.40
2017-07-18T16:36:48.617Z,9.70
2017-07-18T16:39:16.677Z,5.10
2017-07-18T16:41:44.748Z,4.30
2017-07-18T16:44:12.818Z,5.70
2017-07-18T16:46:40.911Z,5.57
2017-07-18T16:49:09.003Z,5.03
2017-07-18T16:51:37.080Z,5.70
2017-07-18T16:54:05.182Z,5.53
2017-07-18T16:56:33.276Z,5.13
2017-07-18T16:59:01.364Z,5.30
2017-07-18T17:01:29.447Z,4.53
2017-07-18T17:03:57.525Z,5.73
2017-07-18T17:06:25.616Z,5.70
2017-07-18T17:08:53.692Z,5.60
2017-07-18T17:11:21.777Z,6.00
2017-07-18T17:13:49.846Z,5.23
2017-07-18T17:16:17.952Z,5.20
2017-07-18T17:18:46.036Z,5.13
2017-07-18T17:21:14.115Z,5.73
2017-07-18T17:23:42.192Z,5.23
2017-07-18T17:26:10.268Z,5.60
2017-07-18T17:28:38.346Z,5.13
2017-07-18T17:31:06.439Z,4.83
2017-07-18T17:33:34.523Z,5.03
2017-07-18T17:36:02.603Z,6.37
2017-07-18T17:38:30.700Z,4.90
2017-07-18T17:40:58.771Z,5.53
2017-07-18T17:43:26.866Z,6.67
2017-07-18T17:45:54.938Z,5.67
2017-07-18T17:48:23.027Z,5.60
2017-07-18T17:50:51.110Z,5.50
2017-07-18T17:53:19.208Z,5.50
2017-07-18T17:55:47.299Z,5.43
2017-07-18T17:58:15.380Z,5.70
2017-07-18T18:00:43.468Z,4.87
2017-07-18T18:03:11.544Z,5.77
2017-07-18T18:05:39.632Z,5.40
2017-07-18T18:08:07.713Z,6.50
2017-07-18T18:10:35.801Z,5.87
2017-07-18T18:13:03.874Z,7.87
2017-07-18T18:15:31.955Z,11.13
2017-07-18T18:18:00.043Z,5.23
2017-07-18T18:20:28.106Z,6.00
2017-07-18T18:22:56.208Z,6.30
2017-07-18T18:25:24.281Z,5.60
2017-07-18T18:27:52.359Z,6.27
2017-07-18T18:30:20.443Z,5.20
2017-07-18T18:32:48.532Z,6.77
2017-07-18T18:35:16.604Z,7.37
2017-07-18T18:37:44.702Z,6.43
2017-07-18T18:40:12.773Z,5.53
2017-07-18T18:42:40.843Z,5.50
2017-07-18T18:45:08.978Z,5.47
2017-07-18T18:47:37.131Z,5.80
2017-07-18T18:50:05.321Z,6.90
2017-07-18T18:52:33.397Z,6.43
2017-07-18T18:55:01.488Z,10.77
2017-07-18T18:57:29.554Z,4.93
2017-07-18T18:59:57.644Z,6.30
2017-07-18T19:02:25.714Z,6.20
2017-07-18T19:04:53.810Z,6.17
2017-07-18T19:07:21.880Z,6.43
2017-07-18T19:09:49.958Z,5.57
2017-07-18T19:12:18.040Z,6.50
2017-07-18T19:14:46.153Z,6.23
2017-07-18T19:17:14.256Z,5.80
2017-07-18T19:19:42.335Z,5.80
2017-07-18T19:22:10.407Z,6.30
2017-07-18T19:24:38.480Z,6.00
2017-07-18T19:27:06.576Z,6.10
2017-07-18T19:29:34.660Z,5.27
2017-07-18T19:32:02.749Z,5.53
2017-07-18T19:34:30.828Z,5.90
2017-07-18T19:36:58.930Z,8.53
2017-07-18T19:39:27.014Z,6.10
2017-07-18T19:41:55.091Z,7.00
2017-07-18T19:44:23.225Z,6.23
2017-07-18T19:46:51.347Z,6.10
2017-07-18T19:49:19.482Z,6.60
2017-07-18T19:51:47.678Z,7.40
2017-07-18T19:54:15.954Z,9.07
2017-07-18T19:56:44.033Z,6.03
2017-07-18T19:59:12.381Z,6.50
2017-07-18T20:01:40.446Z,6.60
2017-07-18T20:04:08.638Z,8.67
2017-07-18T20:06:36.723Z,6.47
2017-07-18T20:09:04.858Z,6.50
2017-07-18T20:11:32.956Z,6.27
2017-07-18T20:14:01.066Z,6.40
2017-07-18T20:16:29.143Z,6.07
2017-07-18T20:18:57.271Z,6.07
2017-07-18T20:21:25.352Z,5.90
2017-07-18T20:23:53.483Z,6.57
2017-07-18T20:26:21.690Z,6.73
2017-07-18T20:28:49.812Z,7.27
2017-07-18T20:31:17.883Z,9.00
2017-07-18T20:33:45.966Z,7.83
2017-07-18T20:36:14.039Z,6.77
2017-07-18T20:38:42.119Z,9.13
2017-07-18T20:41:10.194Z,6.60
2017-07-18T20:43:38.325Z,6.40
2017-07-18T20:46:06.385Z,7.17
2017-07-18T20:48:34.469Z,6.90
2017-07-18T20:51:02.531Z,6.30
2017-07-18T20:53:30.635Z,7.53
2017-07-18T20:55:58.702Z,6.97
2017-07-18T20:58:26.773Z,7.37
2017-07-18T21:00:54.851Z,7.63
2017-07-18T21:03:22.937Z,8.17
2017-07-18T21:05:51.027Z,8.20
2017-07-18T21:08:19.101Z,6.97
2017-07-18T21:10:47.183Z,7.10
2017-07-18T21:13:15.274Z,7.87
2017-07-18T21:15:43.372Z,8.07
2017-07-18T21:18:11.448Z,8.03
2017-07-18T21:20:39.540Z,7.50
2017-07-18T21:23:07.628Z,7.50
2017-07-18T21:25:35.707Z,8.00
2017-07-18T21:28:03.783Z,7.37
2017-07-18T21:30:31.858Z,8.10
2017-07-18T21:32:59.934Z,8.53
2017-07-18T21:35:28.033Z,7.87
2017-07-18T21:37:56.107Z,7.73
2017-07-18T21:40:24.186Z,8.00
2017-07-18T21:42:52.266Z,7.27
2017-07-18T21:45:20.339Z,7.50
2017-07-18T21:47:48.432Z,9.53
2017-07-18T21:50:16.509Z,8.00
2017-07-18T21:52:44.598Z,8.47
2017-07-18T21:55:12.669Z,7.70
2017-07-18T21:57:40.754Z,8.40
2017-07-18T22:00:08.840Z,7.37
2017-07-18T22:02:36.911Z,7.63
2017-07-18T22:05:05.003Z,7.70
2017-07-18T22:07:33.083Z,7.57
2017-07-18T22:10:01.171Z,7.30
2017-07-18T22:12:29.247Z,7.60
2017-07-18T22:14:57.326Z,8.67
2017-07-18T22:17:25.400Z,8.43
2017-07-18T22:19:53.463Z,8.77
2017-07-18T22:22:21.543Z,7.80
2017-07-18T22:24:49.607Z,8.90
2017-07-18T22:27:17.810Z,8.73
2017-07-18T22:29:45.999Z,8.30
2017-07-18T22:32:14.084Z,9.03
2017-07-18T22:34:42.162Z,8.23
2017-07-18T22:37:10.249Z,7.73
2017-07-18T22:39:38.323Z,7.77
2017-07-18T22:42:06.423Z,7.60
2017-07-18T22:44:34.495Z,8.70
2017-07-18T22:47:02.570Z,8.37
2017-07-18T22:49:30.666Z,8.70
2017-07-18T22:51:58.740Z,7.70
2017-07-18T22:54:26.818Z,10.40
2017-07-18T22:56:54.914Z,9.30
2017-07-18T22:59:22.988Z,8.43
2017-07-18T23:01:51.069Z,8.90
2017-07-18T23:04:19.155Z,9.27
2017-07-18T23:06:47.230Z,8.60
2017-07-18T23:09:15.311Z,9.20
2017-07-18T23:11:43.391Z,8.47
2017-07-18T23:14:11.479Z,8.73
2017-07-18T23:16:39.559Z,9.80
2017-07-18T23:19:07.636Z,10.07
2017-07-18T23:21:35.714Z,8.33
2017-07-18T23:24:03.801Z,10.77
2017-07-18T23:26:32.019Z,10.10
2017-07-18T23:29:00.105Z,9.97
2017-07-18T23:31:28.181Z,8.60
2017-07-18T23:33:56.251Z,10.43
2017-07-18T23:36:24.328Z,9.43
2017-07-18T23:38:52.405Z,8.90
2017-07-18T23:41:20.474Z,9.27
2017-07-18T23:43:48.571Z,9.90
2017-07-18T23:46:16.650Z,10.27
2017-07-18T23:48:44.731Z,9.27
2017-07-18T23:51:12.834Z,10.30
2017-07-18T23:53:40.959Z,10.97
2017-07-18T23:56:09.039Z,8.80
2017-07-18T23:58:37.120Z,9.83
